Time;durP1;ratioP1;P1;durP2;ratioP2;P2;SDS_P1;SDS_P2;PMS_P1;PMS_P2;Temp;Humidity;BMP_temperature;BMP_pressure;BME280_temperature;BME280_humidity;BME280_pressure;Samples;Min_cycle;Max_cycle;Signal;HPM_P1;HPM_P2
2020/03/17 00:00:37;;;;;;;5.750001;3.8;;;;;;;4.54;74.23145;95982.47;;;;
2020/03/17 00:01:41;;;;;;;5.750001;3.8;;;;;;;4.54;74.23145;95982.47;;;;
2020/03/17 00:02:42;;;;;;;5.750001;3.8;;;;;;;4.54;74.23145;95982.47;;;;
2020/03/17 00:03:42;;;;;;;5.750001;3.8;;;;;;;4.54;74.23145;95982.47;;;;
2020/03/17 00:04:43;;;;;;;5.750001;3.8;;;;;;;4.54;74.23145;95982.47;;;;
2020/03/17 00:05:43;;;;;;;5.750001;3.8;;;;;;;4.54;74.23145;95982.47;;;;
2020/03/17 00:06:44;;;;;;;5.750001;3.8;;;;;;;4.54;74.23145;95982.47;;;;
2020/03/17 00:07:45;;;;;;;7.45;3.95;;;;;;;4.24;72.58789;95987.73;;;;
2020/03/17 00:08:45;;;;;;;7.45;3.95;;;;;;;4.24;72.58789;95987.73;;;;
2020/03/17 00:09:46;;;;;;;7.45;3.95;;;;;;;4.24;72.58789;95987.73;;;;
2020/03/17 00:10:57;;;;;;;4.75;3.8;;;;;;;4.23;73.25977;95996.86;;;;
2020/03/17 00:11:57;;;;;;;4.75;3.8;;;;;;;4.23;73.25977;95996.86;;;;
2020/03/17 00:12:58;;;;;;;4.75;3.8;;;;;;;4.23;73.25977;95996.86;;;;
2020/03/17 00:13:58;;;;;;;4.75;3.8;;;;;;;4.23;73.25977;95996.86;;;;
2020/03/17 00:14:59;;;;;;;4.75;3.8;;;;;;;4.23;73.25977;95996.86;;;;
2020/03/17 00:15:59;;;;;;;4.75;3.8;;;;;;;4.23;73.25977;95996.86;;;;
2020/03/17 00:16:59;;;;;;;4.75;3.8;;;;;;;4.23;73.25977;95996.86;;;;
2020/03/17 00:18:00;;;;;;;4.75;3.8;;;;;;;4.23;73.25977;95996.86;;;;
2020/03/17 00:19:00;;;;;;;4.75;3.8;;;;;;;4.23;73.25977;95996.86;;;;
2020/03/17 00:20:01;;;;;;;4.75;3.8;;;;;;;4.23;73.25977;95996.86;;;;
2020/03/17 00:21:02;;;;;;;4.9;3.8;;;;;;;3.93;72.22852;96005.78;;;;
2020/03/17 00:22:03;;;;;;;4.9;3.8;;;;;;;3.93;72.22852;96005.78;;;;
2020/03/17 00:23:03;;;;;;;4.9;3.8;;;;;;;3.93;72.22852;96005.78;;;;
2020/03/17 00:24:03;;;;;;;4.95;3.8;;;;;;;3.92;73.00684;96008.13;;;;
2020/03/17 00:25:04;;;;;;;4.95;3.8;;;;;;;3.92;73.00684;96008.13;;;;
2020/03/17 00:26:04;;;;;;;5.3;3.9;;;;;;;3.97;73.5752;96006.17;;;;
2020/03/17 00:27:05;;;;;;;5.3;3.9;;;;;;;3.97;73.5752;96006.17;;;;
2020/03/17 00:28:05;;;;;;;5.3;3.9;;;;;;;3.97;73.5752;96006.17;;;;
2020/03/17 00:29:06;;;;;;;7.15;3.900001;;;;;;;4;74.04395;96007.14;;;;
2020/03/17 00:30:06;;;;;;;7.15;3.900001;;;;;;;4;74.04395;96007.14;;;;
2020/03/17 00:31:11;;;;;;;7.15;3.900001;;;;;;;4;74.04395;96007.14;;;;
2020/03/17 00:32:11;;;;;;;7.15;3.900001;;;;;;;4;74.04395;96007.14;;;;
2020/03/17 00:33:11;;;;;;;7.15;3.900001;;;;;;;4;74.04395;96007.14;;;;
2020/03/17 00:34:12;;;;;;;7.15;3.900001;;;;;;;4;74.04395;96007.14;;;;
2020/03/17 00:35:12;;;;;;;7.15;3.900001;;;;;;;4;74.04395;96007.14;;;;
2020/03/17 00:36:13;;;;;;;7.15;3.900001;;;;;;;4;74.04395;96007.14;;;;
2020/03/17 00:37:14;;;;;;;7.15;3.900001;;;;;;;4;74.04395;96007.14;;;;
2020/03/17 00:38:14;;;;;;;7.15;3.900001;;;;;;;4;74.04395;96007.14;;;;
2020/03/17 00:39:15;;;;;;;4.3;3.3;;;;;;;3.67;72.56641;96006.94;;;;
2020/03/17 00:40:35;;;;;;;4.3;3.3;;;;;;;3.67;72.56641;96006.94;;;;
2020/03/17 00:41:36;;;;;;;4.3;3.3;;;;;;;3.67;72.56641;96006.94;;;;
2020/03/17 00:42:37;;;;;;;4.95;3.7;;;;;;;3.66;73.41699;96003.96;;;;
2020/03/17 00:43:37;;;;;;;4.95;3.7;;;;;;;3.66;73.41699;96003.96;;;;
2020/03/17 00:44:38;;;;;;;4.95;3.7;;;;;;;3.66;73.41699;96003.96;;;;
2020/03/17 00:45:45;;;;;;;4.95;3.7;;;;;;;3.66;73.41699;96003.96;;;;
2020/03/17 00:46:46;;;;;;;4.95;3.7;;;;;;;3.66;73.41699;96003.96;;;;
2020/03/17 00:47:47;;;;;;;4.95;3.7;;;;;;;3.66;73.41699;96003.96;;;;
2020/03/17 00:48:47;;;;;;;4.95;3.7;;;;;;;3.66;73.41699;96003.96;;;;
2020/03/17 00:49:48;;;;;;;4.95;3.7;;;;;;;3.66;73.41699;96003.96;;;;
2020/03/17 00:50:48;;;;;;;4.95;3.7;;;;;;;3.66;73.41699;96003.96;;;;
2020/03/17 00:51:48;;;;;;;4.95;3.7;;;;;;;3.66;73.41699;96003.96;;;;
2020/03/17 00:52:49;;;;;;;3.65;3.15;;;;;;;3.44;72.37793;96015.91;;;;
2020/03/17 00:53:49;;;;;;;3.65;3.15;;;;;;;3.44;72.37793;96015.91;;;;
2020/03/17 00:54:50;;;;;;;3.65;3.15;;;;;;;3.44;72.37793;96015.91;;;;
2020/03/17 00:55:50;;;;;;;3.9;3.45;;;;;;;3.44;73.24121;96020.83;;;;
2020/03/17 00:56:50;;;;;;;3.9;3.45;;;;;;;3.44;73.24121;96020.83;;;;
2020/03/17 00:57:51;;;;;;;3.9;3.45;;;;;;;3.44;73.24121;96020.83;;;;
2020/03/17 00:58:51;;;;;;;3.9;3.45;;;;;;;3.44;73.24121;96020.83;;;;
2020/03/17 00:59:52;;;;;;;3.9;3.45;;;;;;;3.44;73.24121;96020.83;;;;
2020/03/17 01:00:52;;;;;;;3.9;3.45;;;;;;;3.44;73.24121;96020.83;;;;
2020/03/17 01:02:19;;;;;;;3.9;3.45;;;;;;;3.44;73.24121;96020.83;;;;
2020/03/17 01:03:20;;;;;;;3.9;3.45;;;;;;;3.44;73.24121;96020.83;;;;
2020/03/17 01:04:22;;;;;;;3.9;3.45;;;;;;;3.44;73.24121;96020.83;;;;
2020/03/17 01:05:22;;;;;;;3.9;3.45;;;;;;;3.44;73.24121;96020.83;;;;
2020/03/17 01:06:22;;;;;;;4.7;3.5;;;;;;;3.26;72.29492;96027.33;;;;
2020/03/17 01:07:24;;;;;;;4.7;3.5;;;;;;;3.26;72.29492;96027.33;;;;
2020/03/17 01:08:24;;;;;;;4.750001;3.55;;;;;;;3.27;73.19141;96025.92;;;;
2020/03/17 01:09:25;;;;;;;4.750001;3.55;;;;;;;3.27;73.19141;96025.92;;;;
2020/03/17 01:10:35;;;;;;;4.750001;3.55;;;;;;;3.27;73.19141;96025.92;;;;
2020/03/17 01:11:36;;;;;;;4.750001;3.55;;;;;;;3.27;73.19141;96025.92;;;;
2020/03/17 01:12:36;;;;;;;4.750001;3.55;;;;;;;3.27;73.19141;96025.92;;;;
2020/03/17 01:13:37;;;;;;;4.750001;3.55;;;;;;;3.27;73.19141;96025.92;;;;
2020/03/17 01:14:37;;;;;;;4.750001;3.55;;;;;;;3.27;73.19141;96025.92;;;;
2020/03/17 01:15:38;;;;;;;4.750001;3.55;;;;;;;3.27;73.19141;96025.92;;;;
2020/03/17 01:16:39;;;;;;;4.750001;3.55;;;;;;;3.27;73.19141;96025.92;;;;
2020/03/17 01:17:39;;;;;;;4.750001;3.55;;;;;;;3.27;73.19141;96025.92;;;;
2020/03/17 01:18:40;;;;;;;4.750001;3.55;;;;;;;3.27;73.19141;96025.92;;;;
2020/03/17 01:19:40;;;;;;;5.45;3.85;;;;;;;3.12;72.34473;96016.05;;;;
2020/03/17 01:20:40;;;;;;;5.45;3.85;;;;;;;3.12;72.34473;96016.05;;;;
2020/03/17 01:21:41;;;;;;;7.150001;4.199999;;;;;;;3.14;73.28613;96013.55;;;;
2020/03/17 01:22:42;;;;;;;7.150001;4.199999;;;;;;;3.14;73.28613;96013.55;;;;
2020/03/17 01:23:44;;;;;;;7.150001;4.199999;;;;;;;3.14;73.28613;96013.55;;;;
2020/03/17 01:24:44;;;;;;;7.150001;4.199999;;;;;;;3.14;73.28613;96013.55;;;;
2020/03/17 01:25:45;;;;;;;7.150001;4.199999;;;;;;;3.14;73.28613;96013.55;;;;
2020/03/17 01:26:45;;;;;;;7.150001;4.199999;;;;;;;3.14;73.28613;96013.55;;;;
2020/03/17 01:27:46;;;;;;;7.150001;4.199999;;;;;;;3.14;73.28613;96013.55;;;;
2020/03/17 01:28:46;;;;;;;7.150001;4.199999;;;;;;;3.14;73.28613;96013.55;;;;
2020/03/17 01:29:47;;;;;;;7.150001;4.199999;;;;;;;3.14;73.28613;96013.55;;;;
2020/03/17 01:30:47;;;;;;;7.150001;4.199999;;;;;;;3.14;73.28613;96013.55;;;;
2020/03/17 01:31:47;;;;;;;7.150001;4.199999;;;;;;;3.14;73.28613;96013.55;;;;
2020/03/17 01:32:48;;;;;;;5.9;4.55;;;;;;;3.03;72.44824;96015.67;;;;
2020/03/17 01:33:48;;;;;;;5.9;4.55;;;;;;;3.03;72.44824;96015.67;;;;
2020/03/17 01:34:49;;;;;;;6.4;4.799999;;;;;;;3.07;73.41016;96022.83;;;;
2020/03/17 01:35:49;;;;;;;6.4;4.799999;;;;;;;3.07;73.41016;96022.83;;;;
2020/03/17 01:36:50;;;;;;;6.4;4.799999;;;;;;;3.07;73.41016;96022.83;;;;
2020/03/17 01:37:50;;;;;;;6.4;4.799999;;;;;;;3.07;73.41016;96022.83;;;;
2020/03/17 01:38:51;;;;;;;6.4;4.799999;;;;;;;3.07;73.41016;96022.83;;;;
2020/03/17 01:39:51;;;;;;;6.4;4.799999;;;;;;;3.07;73.41016;96022.83;;;;
2020/03/17 01:40:52;;;;;;;6.4;4.799999;;;;;;;3.07;73.41016;96022.83;;;;
2020/03/17 01:41:54;;;;;;;6.4;4.799999;;;;;;;3.07;73.41016;96022.83;;;;
2020/03/17 01:42:55;;;;;;;6.4;4.799999;;;;;;;3.07;73.41016;96022.83;;;;
2020/03/17 01:43:57;;;;;;;6.4;4.799999;;;;;;;3.07;73.41016;96022.83;;;;
2020/03/17 01:44:57;;;;;;;6.4;4.799999;;;;;;;3.07;73.41016;96022.83;;;;
2020/03/17 01:45:58;;;;;;;5.15;4.3;;;;;;;3.02;72.5918;96013.19;;;;
2020/03/17 01:47:00;;;;;;;5.15;4.3;;;;;;;3.02;72.5918;96013.19;;;;
2020/03/17 01:48:00;;;;;;;7;5.199999;;;;;;;3.07;73.53613;96026.4;;;;
2020/03/17 01:49:01;;;;;;;7;5.199999;;;;;;;3.07;73.53613;96026.4;;;;
2020/03/17 01:50:02;;;;;;;7;5.199999;;;;;;;3.07;73.53613;96026.4;;;;
2020/03/17 01:51:05;;;;;;;7;5.199999;;;;;;;3.07;73.53613;96026.4;;;;
2020/03/17 01:52:05;;;;;;;7;5.199999;;;;;;;3.07;73.53613;96026.4;;;;
2020/03/17 01:53:06;;;;;;;7;5.199999;;;;;;;3.07;73.53613;96026.4;;;;
2020/03/17 01:54:06;;;;;;;7;5.199999;;;;;;;3.07;73.53613;96026.4;;;;
2020/03/17 01:55:07;;;;;;;7;5.199999;;;;;;;3.07;73.53613;96026.4;;;;
2020/03/17 01:56:07;;;;;;;7;5.199999;;;;;;;3.07;73.53613;96026.4;;;;
2020/03/17 01:57:08;;;;;;;7;5.199999;;;;;;;3.07;73.53613;96026.4;;;;
2020/03/17 01:58:08;;;;;;;7;5.199999;;;;;;;3.07;73.53613;96026.4;;;;
2020/03/17 01:59:09;;;;;;;4.5;4.100001;;;;;;;3.03;72.67969;96021.01;;;;
2020/03/17 02:00:10;;;;;;;4.5;4.100001;;;;;;;3.03;72.67969;96021.01;;;;
2020/03/17 02:01:13;;;;;;;5.950001;4.75;;;;;;;3.08;73.67578;96023.99;;;;
2020/03/17 02:02:14;;;;;;;5.950001;4.75;;;;;;;3.08;73.67578;96023.99;;;;
2020/03/17 02:03:14;;;;;;;5.950001;4.75;;;;;;;3.08;73.67578;96023.99;;;;
2020/03/17 02:04:15;;;;;;;5.950001;4.75;;;;;;;3.08;73.67578;96023.99;;;;
2020/03/17 02:05:15;;;;;;;5.950001;4.75;;;;;;;3.08;73.67578;96023.99;;;;
2020/03/17 02:06:16;;;;;;;5.950001;4.75;;;;;;;3.08;73.67578;96023.99;;;;
2020/03/17 02:07:17;;;;;;;5.950001;4.75;;;;;;;3.08;73.67578;96023.99;;;;
2020/03/17 02:08:17;;;;;;;5.950001;4.75;;;;;;;3.08;73.67578;96023.99;;;;
2020/03/17 02:09:18;;;;;;;5.950001;4.75;;;;;;;3.08;73.67578;96023.99;;;;
2020/03/17 02:10:20;;;;;;;5.950001;4.75;;;;;;;3.08;73.67578;96023.99;;;;
2020/03/17 02:11:21;;;;;;;5.950001;4.75;;;;;;;3.08;73.67578;96023.99;;;;
2020/03/17 02:12:26;;;;;;;5.3;4.25;;;;;;;3.13;72.99023;96032.3;;;;
2020/03/17 02:13:32;;;;;;;5.3;4.25;;;;;;;3.13;72.99023;96032.3;;;;
2020/03/17 02:14:34;;;;;;;6.550001;4.05;;;;;;;3.22;73.99512;96028.18;;;;
2020/03/17 02:15:59;;;;;;;6.550001;4.05;;;;;;;3.22;73.99512;96028.18;;;;
2020/03/17 02:17:01;;;;;;;6.550001;4.05;;;;;;;3.22;73.99512;96028.18;;;;
2020/03/17 02:18:01;;;;;;;6.550001;4.05;;;;;;;3.22;73.99512;96028.18;;;;
2020/03/17 02:19:02;;;;;;;6.550001;4.05;;;;;;;3.22;73.99512;96028.18;;;;
2020/03/17 02:20:04;;;;;;;6.550001;4.05;;;;;;;3.22;73.99512;96028.18;;;;
2020/03/17 02:21:07;;;;;;;6.550001;4.05;;;;;;;3.22;73.99512;96028.18;;;;
2020/03/17 02:22:09;;;;;;;6.550001;4.05;;;;;;;3.22;73.99512;96028.18;;;;
2020/03/17 02:23:10;;;;;;;6.550001;4.05;;;;;;;3.22;73.99512;96028.18;;;;
2020/03/17 02:24:10;;;;;;;6.550001;4.05;;;;;;;3.22;73.99512;96028.18;;;;
2020/03/17 02:25:11;;;;;;;5.25;3.85;;;;;;;3.36;72.97754;96038.16;;;;
2020/03/17 02:26:11;;;;;;;5.25;3.85;;;;;;;3.36;72.97754;96038.16;;;;
2020/03/17 02:27:12;;;;;;;5.25;3.85;;;;;;;3.36;72.97754;96038.16;;;;
2020/03/17 02:28:12;;;;;;;4.75;4.25;;;;;;;3.44;73.96875;96037.69;;;;
2020/03/17 02:29:14;;;;;;;4.75;4.25;;;;;;;3.44;73.96875;96037.69;;;;
2020/03/17 02:30:14;;;;;;;4.75;4.25;;;;;;;3.44;73.96875;96037.69;;;;
2020/03/17 02:31:20;;;;;;;4.75;4.25;;;;;;;3.44;73.96875;96037.69;;;;
2020/03/17 02:32:21;;;;;;;4.75;4.25;;;;;;;3.44;73.96875;96037.69;;;;
2020/03/17 02:33:21;;;;;;;4.75;4.25;;;;;;;3.44;73.96875;96037.69;;;;
2020/03/17 02:34:22;;;;;;;4.75;4.25;;;;;;;3.44;73.96875;96037.69;;;;
2020/03/17 02:35:22;;;;;;;4.75;4.25;;;;;;;3.44;73.96875;96037.69;;;;
2020/03/17 02:36:23;;;;;;;4.75;4.25;;;;;;;3.44;73.96875;96037.69;;;;
2020/03/17 02:37:23;;;;;;;4.75;4.25;;;;;;;3.44;73.96875;96037.69;;;;
2020/03/17 02:38:24;;;;;;;5.15;4.149999;;;;;;;3.5;73.07324;96041.42;;;;
2020/03/17 02:39:24;;;;;;;5.15;4.149999;;;;;;;3.5;73.07324;96041.42;;;;
2020/03/17 02:40:29;;;;;;;5.15;4.149999;;;;;;;3.5;73.07324;96041.42;;;;
2020/03/17 02:41:29;;;;;;;5.099999;4.15;;;;;;;3.57;74.10547;96039.29;;;;
2020/03/17 02:42:29;;;;;;;5.099999;4.15;;;;;;;3.57;74.10547;96039.29;;;;
2020/03/17 02:43:30;;;;;;;5.099999;4.15;;;;;;;3.57;74.10547;96039.29;;;;
2020/03/17 02:44:30;;;;;;;5.099999;4.15;;;;;;;3.57;74.10547;96039.29;;;;
2020/03/17 02:45:31;;;;;;;5.099999;4.15;;;;;;;3.57;74.10547;96039.29;;;;
2020/03/17 02:46:31;;;;;;;5.099999;4.15;;;;;;;3.57;74.10547;96039.29;;;;
2020/03/17 02:47:32;;;;;;;5.099999;4.15;;;;;;;3.57;74.10547;96039.29;;;;
2020/03/17 02:48:32;;;;;;;5.099999;4.15;;;;;;;3.57;74.10547;96039.29;;;;
2020/03/17 02:49:33;;;;;;;5.099999;4.15;;;;;;;3.57;74.10547;96039.29;;;;
2020/03/17 02:50:34;;;;;;;5.099999;4.15;;;;;;;3.57;74.10547;96039.29;;;;
2020/03/17 02:51:34;;;;;;;6.149999;4.15;;;;;;;3.63;73.20117;96054.21;;;;
2020/03/17 02:52:35;;;;;;;6.149999;4.15;;;;;;;3.63;73.20117;96054.21;;;;
2020/03/17 02:53:35;;;;;;;6.149999;4.15;;;;;;;3.63;73.20117;96054.21;;;;
2020/03/17 02:54:36;;;;;;;6.3;4.8;;;;;;;3.7;74.18262;96062.27;;;;
2020/03/17 02:55:36;;;;;;;6.3;4.8;;;;;;;3.7;74.18262;96062.27;;;;
2020/03/17 02:56:37;;;;;;;6.3;4.8;;;;;;;3.7;74.18262;96062.27;;;;
2020/03/17 02:57:37;;;;;;;6.3;4.8;;;;;;;3.7;74.18262;96062.27;;;;
2020/03/17 02:58:38;;;;;;;6.3;4.8;;;;;;;3.7;74.18262;96062.27;;;;
2020/03/17 02:59:38;;;;;;;6.3;4.8;;;;;;;3.7;74.18262;96062.27;;;;
2020/03/17 03:00:38;;;;;;;6.3;4.8;;;;;;;3.7;74.18262;96062.27;;;;
2020/03/17 03:01:39;;;;;;;6.3;4.8;;;;;;;3.7;74.18262;96062.27;;;;
2020/03/17 03:02:39;;;;;;;6.3;4.8;;;;;;;3.7;74.18262;96062.27;;;;
2020/03/17 03:03:40;;;;;;;6.3;4.8;;;;;;;3.7;74.18262;96062.27;;;;
2020/03/17 03:04:40;;;;;;;6.3;4.8;;;;;;;3.7;74.18262;96062.27;;;;
2020/03/17 03:05:41;;;;;;;6;4.550001;;;;;;;3.76;73.32715;96079.43;;;;
2020/03/17 03:06:41;;;;;;;6;4.550001;;;;;;;3.76;73.32715;96079.43;;;;
2020/03/17 03:07:42;;;;;;;5.5;4.4;;;;;;;3.82;74.28711;96080.89;;;;
2020/03/17 03:08:44;;;;;;;5.5;4.4;;;;;;;3.82;74.28711;96080.89;;;;
2020/03/17 03:09:46;;;;;;;5.5;4.4;;;;;;;3.82;74.28711;96080.89;;;;
2020/03/17 03:10:47;;;;;;;5.5;4.4;;;;;;;3.82;74.28711;96080.89;;;;
2020/03/17 03:11:49;;;;;;;5.5;4.4;;;;;;;3.82;74.28711;96080.89;;;;
2020/03/17 03:12:49;;;;;;;5.5;4.4;;;;;;;3.82;74.28711;96080.89;;;;
2020/03/17 03:13:50;;;;;;;5.5;4.4;;;;;;;3.82;74.28711;96080.89;;;;
2020/03/17 03:14:50;;;;;;;5.5;4.4;;;;;;;3.82;74.28711;96080.89;;;;
2020/03/17 03:15:51;;;;;;;5.5;4.4;;;;;;;3.82;74.28711;96080.89;;;;
2020/03/17 03:16:52;;;;;;;5.5;4.4;;;;;;;3.82;74.28711;96080.89;;;;
2020/03/17 03:17:53;;;;;;;5.5;4.4;;;;;;;3.82;74.28711;96080.89;;;;
2020/03/17 03:18:53;;;;;;;6.05;4.099999;;;;;;;3.92;73.41992;96077.48;;;;
2020/03/17 03:19:54;;;;;;;6.05;4.099999;;;;;;;3.92;73.41992;96077.48;;;;
2020/03/17 03:20:54;;;;;;;5.6;4.3;;;;;;;4;74.34961;96085.46;;;;
2020/03/17 03:21:54;;;;;;;5.6;4.3;;;;;;;4;74.34961;96085.46;;;;
2020/03/17 03:22:55;;;;;;;5.6;4.3;;;;;;;4;74.34961;96085.46;;;;
2020/03/17 03:23:55;;;;;;;5.6;4.3;;;;;;;4;74.34961;96085.46;;;;
2020/03/17 03:24:56;;;;;;;5.6;4.3;;;;;;;4;74.34961;96085.46;;;;
2020/03/17 03:25:56;;;;;;;5.6;4.3;;;;;;;4;74.34961;96085.46;;;;
2020/03/17 03:26:56;;;;;;;5.6;4.3;;;;;;;4;74.34961;96085.46;;;;
2020/03/17 03:27:57;;;;;;;5.6;4.3;;;;;;;4;74.34961;96085.46;;;;
2020/03/17 03:28:57;;;;;;;5.6;4.3;;;;;;;4;74.34961;96085.46;;;;
2020/03/17 03:29:58;;;;;;;5.6;4.3;;;;;;;4;74.34961;96085.46;;;;
2020/03/17 03:30:58;;;;;;;5.6;4.3;;;;;;;4;74.34961;96085.46;;;;
2020/03/17 03:31:59;;;;;;;4.35;3.5;;;;;;;4.12;73.48535;96092.97;;;;
2020/03/17 03:32:59;;;;;;;4.35;3.5;;;;;;;4.12;73.48535;96092.97;;;;
2020/03/17 03:34:00;;;;;;;4.65;3.75;;;;;;;4.18;74.33789;96095.37;;;;
2020/03/17 03:35:00;;;;;;;4.65;3.75;;;;;;;4.18;74.33789;96095.37;;;;
2020/03/17 03:36:00;;;;;;;4.65;3.75;;;;;;;4.18;74.33789;96095.37;;;;
2020/03/17 03:37:01;;;;;;;4.65;3.75;;;;;;;4.18;74.33789;96095.37;;;;
2020/03/17 03:38:01;;;;;;;4.65;3.75;;;;;;;4.18;74.33789;96095.37;;;;
2020/03/17 03:39:02;;;;;;;4.65;3.75;;;;;;;4.18;74.33789;96095.37;;;;
2020/03/17 03:40:11;;;;;;;4.65;3.75;;;;;;;4.18;74.33789;96095.37;;;;
2020/03/17 03:41:12;;;;;;;4.65;3.75;;;;;;;4.18;74.33789;96095.37;;;;
2020/03/17 03:42:15;;;;;;;4.65;3.75;;;;;;;4.18;74.33789;96095.37;;;;
2020/03/17 03:43:15;;;;;;;4.65;3.75;;;;;;;4.18;74.33789;96095.37;;;;
2020/03/17 03:44:16;;;;;;;4.65;3.75;;;;;;;4.18;74.33789;96095.37;;;;
2020/03/17 03:45:17;;;;;;;4.199999;3.400001;;;;;;;4.19;73.42285;96102.89;;;;
2020/03/17 03:46:17;;;;;;;4.199999;3.400001;;;;;;;4.19;73.42285;96102.89;;;;
2020/03/17 03:47:18;;;;;;;5;3.6;;;;;;;4.24;74.36914;96111.21;;;;
2020/03/17 03:48:18;;;;;;;5;3.6;;;;;;;4.24;74.36914;96111.21;;;;
2020/03/17 03:49:19;;;;;;;5;3.6;;;;;;;4.24;74.36914;96111.21;;;;
2020/03/17 03:50:19;;;;;;;5;3.6;;;;;;;4.24;74.36914;96111.21;;;;
2020/03/17 03:51:20;;;;;;;5;3.6;;;;;;;4.24;74.36914;96111.21;;;;
2020/03/17 03:52:20;;;;;;;5;3.6;;;;;;;4.24;74.36914;96111.21;;;;
2020/03/17 03:53:21;;;;;;;5;3.6;;;;;;;4.24;74.36914;96111.21;;;;
2020/03/17 03:54:22;;;;;;;5;3.6;;;;;;;4.24;74.36914;96111.21;;;;
2020/03/17 03:55:22;;;;;;;5;3.6;;;;;;;4.24;74.36914;96111.21;;;;
2020/03/17 03:56:23;;;;;;;5;3.6;;;;;;;4.24;74.36914;96111.21;;;;
2020/03/17 03:57:23;;;;;;;5;3.6;;;;;;;4.24;74.36914;96111.21;;;;
2020/03/17 03:58:23;;;;;;;4.750001;3.5;;;;;;;4.28;73.54395;96107.18;;;;
2020/03/17 03:59:24;;;;;;;4.750001;3.5;;;;;;;4.28;73.54395;96107.18;;;;
2020/03/17 04:00:25;;;;;;;4.750001;3.5;;;;;;;4.28;73.54395;96107.18;;;;
2020/03/17 04:01:25;;;;;;;4.750001;3.5;;;;;;;4.28;73.54395;96107.18;;;;
2020/03/17 04:02:26;;;;;;;4.750001;3.5;;;;;;;4.28;73.54395;96107.18;;;;
2020/03/17 04:03:26;;;;;;;4.750001;3.5;;;;;;;4.28;73.54395;96107.18;;;;
2020/03/17 04:04:27;;;;;;;4.750001;3.5;;;;;;;4.28;73.54395;96107.18;;;;
2020/03/17 04:05:27;;;;;;;4.750001;3.5;;;;;;;4.28;73.54395;96107.18;;;;
2020/03/17 04:06:28;;;;;;;4.750001;3.5;;;;;;;4.28;73.54395;96107.18;;;;
2020/03/17 04:07:29;;;;;;;4.750001;3.5;;;;;;;4.28;73.54395;96107.18;;;;
2020/03/17 04:08:29;;;;;;;5.000001;3.75;;;;;;;4.51;73.06543;96111.6;;;;
2020/03/17 04:09:30;;;;;;;5.000001;3.75;;;;;;;4.51;73.06543;96111.6;;;;
2020/03/17 04:10:30;;;;;;;5.000001;3.75;;;;;;;4.51;73.06543;96111.6;;;;
2020/03/17 04:11:31;;;;;;;5.000001;3.75;;;;;;;4.51;73.06543;96111.6;;;;
2020/03/17 04:12:31;;;;;;;5.000001;3.75;;;;;;;4.51;73.06543;96111.6;;;;
2020/03/17 04:13:32;;;;;;;5.000001;3.75;;;;;;;4.51;73.06543;96111.6;;;;
2020/03/17 04:14:32;;;;;;;5.000001;3.75;;;;;;;4.51;73.06543;96111.6;;;;
2020/03/17 04:15:36;;;;;;;5.000001;3.75;;;;;;;4.51;73.06543;96111.6;;;;
2020/03/17 04:16:37;;;;;;;5.000001;3.75;;;;;;;4.51;73.06543;96111.6;;;;
2020/03/17 04:17:39;;;;;;;5.000001;3.75;;;;;;;4.51;73.06543;96111.6;;;;
2020/03/17 04:18:39;;;;;;;5.000001;3.75;;;;;;;4.51;73.06543;96111.6;;;;
2020/03/17 04:19:40;;;;;;;4.649999;3.4;;;;;;;4.82;72.43164;96137.78;;;;
2020/03/17 04:20:41;;;;;;;4.649999;3.4;;;;;;;4.82;72.43164;96137.78;;;;
2020/03/17 04:21:41;;;;;;;4;3.5;;;;;;;4.98;73.16602;96136.8;;;;
2020/03/17 04:22:42;;;;;;;4;3.5;;;;;;;4.98;73.16602;96136.8;;;;
2020/03/17 04:23:42;;;;;;;4;3.5;;;;;;;4.98;73.16602;96136.8;;;;
2020/03/17 04:24:44;;;;;;;4;3.5;;;;;;;4.98;73.16602;96136.8;;;;
2020/03/17 04:25:44;;;;;;;4;3.5;;;;;;;4.98;73.16602;96136.8;;;;
2020/03/17 04:26:45;;;;;;;4;3.5;;;;;;;4.98;73.16602;96136.8;;;;
2020/03/17 04:27:45;;;;;;;4;3.5;;;;;;;4.98;73.16602;96136.8;;;;
2020/03/17 04:28:46;;;;;;;4;3.5;;;;;;;4.98;73.16602;96136.8;;;;
2020/03/17 04:29:47;;;;;;;4;3.5;;;;;;;4.98;73.16602;96136.8;;;;
2020/03/17 04:30:47;;;;;;;4;3.5;;;;;;;4.98;73.16602;96136.8;;;;
2020/03/17 04:31:48;;;;;;;4;3.5;;;;;;;4.98;73.16602;96136.8;;;;
2020/03/17 04:32:48;;;;;;;4.450001;3.25;;;;;;;5.38;72.26074;96142.7;;;;
2020/03/17 04:33:48;;;;;;;4.450001;3.25;;;;;;;5.38;72.26074;96142.7;;;;
2020/03/17 04:34:49;;;;;;;4.450001;3.25;;;;;;;5.38;72.26074;96142.7;;;;
2020/03/17 04:35:50;;;;;;;5.55;3.7;;;;;;;5.52;72.74121;96148.46;;;;
2020/03/17 04:36:52;;;;;;;5.55;3.7;;;;;;;5.52;72.74121;96148.46;;;;
2020/03/17 04:37:53;;;;;;;5.55;3.7;;;;;;;5.52;72.74121;96148.46;;;;
2020/03/17 04:38:53;;;;;;;5.55;3.7;;;;;;;5.52;72.74121;96148.46;;;;
2020/03/17 04:39:54;;;;;;;5.55;3.7;;;;;;;5.52;72.74121;96148.46;;;;
2020/03/17 04:40:55;;;;;;;5.55;3.7;;;;;;;5.52;72.74121;96148.46;;;;
2020/03/17 04:41:59;;;;;;;5.55;3.7;;;;;;;5.52;72.74121;96148.46;;;;
2020/03/17 04:43:03;;;;;;;5.55;3.7;;;;;;;5.52;72.74121;96148.46;;;;
2020/03/17 04:44:04;;;;;;;5.55;3.7;;;;;;;5.52;72.74121;96148.46;;;;
2020/03/17 04:45:05;;;;;;;5.55;3.7;;;;;;;5.52;72.74121;96148.46;;;;
2020/03/17 04:46:05;;;;;;;4.05;3.35;;;;;;;5.83;71.67969;96157.31;;;;
2020/03/17 04:47:05;;;;;;;4.05;3.35;;;;;;;5.83;71.67969;96157.31;;;;
2020/03/17 04:48:07;;;;;;;4.05;3.35;;;;;;;5.83;71.67969;96157.31;;;;
2020/03/17 04:49:07;;;;;;;4.1;3.7;;;;;;;5.95;72.13477;96156.66;;;;
2020/03/17 04:50:08;;;;;;;4.1;3.7;;;;;;;5.95;72.13477;96156.66;;;;
2020/03/17 04:51:08;;;;;;;4.1;3.7;;;;;;;5.95;72.13477;96156.66;;;;
2020/03/17 04:52:09;;;;;;;4.1;3.7;;;;;;;5.95;72.13477;96156.66;;;;
2020/03/17 04:53:09;;;;;;;4.1;3.7;;;;;;;5.95;72.13477;96156.66;;;;
2020/03/17 04:54:10;;;;;;;4.1;3.7;;;;;;;5.95;72.13477;96156.66;;;;
2020/03/17 04:55:10;;;;;;;4.1;3.7;;;;;;;5.95;72.13477;96156.66;;;;
2020/03/17 04:56:11;;;;;;;4.1;3.7;;;;;;;5.95;72.13477;96156.66;;;;
2020/03/17 04:57:11;;;;;;;4.1;3.7;;;;;;;5.95;72.13477;96156.66;;;;
2020/03/17 04:58:12;;;;;;;4.1;3.7;;;;;;;5.95;72.13477;96156.66;;;;
2020/03/17 04:59:12;;;;;;;3.85;3.45;;;;;;;6.21;71.26563;96157.05;;;;
2020/03/17 05:00:13;;;;;;;3.85;3.45;;;;;;;6.21;71.26563;96157.05;;;;
2020/03/17 05:01:18;;;;;;;3.85;3.45;;;;;;;6.21;71.26563;96157.05;;;;
2020/03/17 05:02:18;;;;;;;4.6;3.55;;;;;;;6.33;71.64648;96161.36;;;;
2020/03/17 05:03:19;;;;;;;4.6;3.55;;;;;;;6.33;71.64648;96161.36;;;;
2020/03/17 05:04:19;;;;;;;4.6;3.55;;;;;;;6.33;71.64648;96161.36;;;;
2020/03/17 05:05:20;;;;;;;4.6;3.55;;;;;;;6.33;71.64648;96161.36;;;;
2020/03/17 05:06:21;;;;;;;4.6;3.55;;;;;;;6.33;71.64648;96161.36;;;;
2020/03/17 05:07:21;;;;;;;4.6;3.55;;;;;;;6.33;71.64648;96161.36;;;;
2020/03/17 05:08:22;;;;;;;4.6;3.55;;;;;;;6.33;71.64648;96161.36;;;;
2020/03/17 05:09:22;;;;;;;4.6;3.55;;;;;;;6.33;71.64648;96161.36;;;;
2020/03/17 05:10:23;;;;;;;4.6;3.55;;;;;;;6.33;71.64648;96161.36;;;;
2020/03/17 05:11:24;;;;;;;4.6;3.55;;;;;;;6.33;71.64648;96161.36;;;;
2020/03/17 05:12:24;;;;;;;5.25;3.95;;;;;;;6.51;70.63574;96177.87;;;;
2020/03/17 05:13:25;;;;;;;5.25;3.95;;;;;;;6.51;70.63574;96177.87;;;;
2020/03/17 05:14:25;;;;;;;5.25;3.95;;;;;;;6.51;70.63574;96177.87;;;;
2020/03/17 05:15:26;;;;;;;5.25;3.95;;;;;;;6.51;70.63574;96177.87;;;;
2020/03/17 05:16:26;;;;;;;5.25;3.95;;;;;;;6.51;70.63574;96177.87;;;;
2020/03/17 05:17:28;;;;;;;5.25;3.95;;;;;;;6.51;70.63574;96177.87;;;;
2020/03/17 05:18:28;;;;;;;5.25;3.95;;;;;;;6.51;70.63574;96177.87;;;;
2020/03/17 05:19:28;;;;;;;5.25;3.95;;;;;;;6.51;70.63574;96177.87;;;;
2020/03/17 05:20:29;;;;;;;5.25;3.95;;;;;;;6.51;70.63574;96177.87;;;;
2020/03/17 05:21:29;;;;;;;5.25;3.95;;;;;;;6.51;70.63574;96177.87;;;;
2020/03/17 05:22:30;;;;;;;5.25;3.95;;;;;;;6.51;70.63574;96177.87;;;;
2020/03/17 05:23:33;;;;;;;4.75;3.9;;;;;;;6.69;70.14453;96193.02;;;;
2020/03/17 05:24:40;;;;;;;4.75;3.9;;;;;;;6.69;70.14453;96193.02;;;;
2020/03/17 05:25:41;;;;;;;4.75;3.9;;;;;;;6.69;70.14453;96193.02;;;;
2020/03/17 05:26:41;;;;;;;4.75;3.9;;;;;;;6.69;70.14453;96193.02;;;;
2020/03/17 05:27:42;;;;;;;4.75;3.9;;;;;;;6.69;70.14453;96193.02;;;;
2020/03/17 05:28:43;;;;;;;4.75;3.9;;;;;;;6.69;70.14453;96193.02;;;;
2020/03/17 05:29:44;;;;;;;4.75;3.9;;;;;;;6.69;70.14453;96193.02;;;;
2020/03/17 05:30:45;;;;;;;4.75;3.9;;;;;;;6.69;70.14453;96193.02;;;;
2020/03/17 05:31:46;;;;;;;4.75;3.9;;;;;;;6.69;70.14453;96193.02;;;;
2020/03/17 05:32:47;;;;;;;4.75;3.9;;;;;;;6.69;70.14453;96193.02;;;;
2020/03/17 05:33:48;;;;;;;5.4;4.25;;;;;;;6.76;69.67773;96202.92;;;;
2020/03/17 05:34:49;;;;;;;5.4;4.25;;;;;;;6.76;69.67773;96202.92;;;;
2020/03/17 05:35:50;;;;;;;5.4;4.25;;;;;;;6.76;69.67773;96202.92;;;;
2020/03/17 05:36:50;;;;;;;4.6;4;;;;;;;6.84;70.21191;96202.36;;;;
2020/03/17 05:37:51;;;;;;;4.6;4;;;;;;;6.84;70.21191;96202.36;;;;
2020/03/17 05:38:51;;;;;;;4.6;4;;;;;;;6.84;70.21191;96202.36;;;;
2020/03/17 05:39:52;;;;;;;4.6;4;;;;;;;6.84;70.21191;96202.36;;;;
2020/03/17 05:40:52;;;;;;;4.6;4;;;;;;;6.84;70.21191;96202.36;;;;
2020/03/17 05:41:53;;;;;;;4.6;4;;;;;;;6.84;70.21191;96202.36;;;;
2020/03/17 05:42:53;;;;;;;4.6;4;;;;;;;6.84;70.21191;96202.36;;;;
2020/03/17 05:43:53;;;;;;;4.6;4;;;;;;;6.84;70.21191;96202.36;;;;
2020/03/17 05:44:54;;;;;;;4.6;4;;;;;;;6.84;70.21191;96202.36;;;;
2020/03/17 05:45:54;;;;;;;4.6;4;;;;;;;6.84;70.21191;96202.36;;;;
2020/03/17 05:46:55;;;;;;;5.450001;4.05;;;;;;;6.98;69.67188;96223.36;;;;
2020/03/17 05:47:55;;;;;;;5.450001;4.05;;;;;;;6.98;69.67188;96223.36;;;;
2020/03/17 05:48:56;;;;;;;5.450001;4.05;;;;;;;6.98;69.67188;96223.36;;;;